Scroll down
FLIGHT INFORMATION
Delta Air Lines

DAL1055

At Arrival Gate

KLAS
 KSEA
DATE: 2020-11-21
GATE:  -
GATE DEPARTURE: 23:41
TAKEOFF: 23:51
DATE: 2020-11-22
GATE: C15
LANDING: 02:12
GATE ARRIVAL: 02:17
FLIGHT DATA
Crew: 
Speed: 
466 kts
Altitude: 
40,018 ft
Stage Length: 
753.4 nm
Block Time: 
2.6 hrs
Flight Time: 
2.4 hrs
Fuel Used: 
11,173 lb
Cleared Route: KLAS RBELL ROPPR MDDOG TARRK SHEAD DBIGE BIKKR KENNO OAL LOMIA LKV BLYTZ ESLEY BTG PTERA KRIEG HAWKZ LIINE PIKEZ COFAY BREVE NETTZ KWEST VASHN BUGNE RW16R
TRACK DATA
50,000 ft 1,000 kts
AIRCRAFT INFO AND CUMULATIVE STATS
Aircraft Type: 
B738BW
Registration: 
SELCAL: 
DKPS
MSN/LN: 
29620 / 118
Operator: 
Total Flights: 
2
Total Block Time: 
3.4 hrs
Total Flight Time: 
3.1 hrs
Total Fuel Time: 
16,549 lb
DATALINK LOG | Newest first | Current as of: 2020-12-02 07:42:00
LABEL SEQUENCE CONTENT Dn/Up
QD184902:17 5.1▼ Dn
QC134502:12▼ Dn
2U3339KSEA 211553Z 11004KT 10SM FEW016 BKN040 08/06 A3046 RMK AO2 SLP322 T00780056▲ Up
2S3307KSEA▼ Dn
UM2123115KSEA ATIS - SEA ATIS INFO J 1553Z. 09004KT 10SM FEW016 BKN040 08/06 A3046 (THREE ZERO FOUR SIX). ILS, AND CVA, RYS 16R AND 16L , APCH IN USE. DEPG RWY 16L. SIMUL APCHS IN USE, BFI & SEA. TRAFFIC BELOW YOU ON FINAL. NOTAMS... TWY A CLSD BTWN UNITED MAINTENANCE AND CARGO 2. ...ADVS YOU HAVE INFO J.▲ Up
DM793105 ATIS KSEA A▼ Dn
2U2523KSEA 211553Z 11004KT 10SM FEW016 BKN040 08/06 A3046 RMK AO2 SLP322 T00780056▲ Up
2S2600KSEA▼ Dn
GA1661GATE C15▲ Up
GR1651KSEA 02:07 MAAS 00 YP/UM 00/00 WCHR/S/C 00/00/00 HI-VAL NO DIPL/VIP NO▼ Dn
2U2504KSEA 211453Z 12005KT 10SM BKN015 BKN038 08/06 A3046 RMK AO2 SLP323 60001 T00780061 51002▲ Up
2S2603KSEA▼ Dn
5R2603KENNO 00:18z FL399 OAL 00:25z LOMIA M0.78 12.4 -59 265/106 RW16R 02:07z▼ Dn
5Z250222 NOV 20 00:24:38z / FLT DECK GOOD / ACF POS IMPROPER SPOT / GRND SERVICES NO CHOCKS / MAINT GOOD▼ Dn
QB523023:51▼ Dn
QA422023:41 16.4▼ Dn
UM2123221KLAS ATIS - LAS ATIS INFO Q 1356Z. 25006KT 10SM FEW170 11/M03 A3021 (THREE ZERO TWO ONE). VISUAL APPROACHES IN USE. LANDING RWYS 26L AND 19R. DEPG RWYS 26R, 19R AND 19L. SIMUL APCHS TO CROSSING AND PARALLEL RUNWAYS IN USE, CONVERGING RUNWAY OPERATIONS IN EFFECT. NOTAMS... UNLIGHTED CRANE 60 FT AGL 2680 FT SW RWY, 19L. NOISE ABATEMENT PROC IN EFCT. ALL TOWER FUNCTIONS, CD AND GC COMBINED ON 119.9. ...ADVS YOU HAVE INFO Q.▲ Up
DM793211 ATIS KLAS D▼ Dn
2U3138KLAS 211356Z 26006KT 10SM FEW170 11/M03 A3021 RMK AO2 SLP223 T01061033 $▲ Up
2S3110KLAS▼ Dn
A31605CLEARED TO KSEA VIA SHEAD1 OAL LOMIA LKV HAWKZ7. SQUAWK 6241.▲ Up
Q01253[LINK ACK]▲ Up
Q01253[LINK TEST]▼ Dn


AIRCRAFT HISTORY
FLIGHT DATE FLIGHT NO. ORIGIN DESTINATION CLEARED ROUTE BLOCK TIME FLIGHT TIME FUEL USED PILOT
2020-11-21DAL1055KLAS KSEA KLAS RBELL ROPPR MDDOG TARRK SHEAD DBIGE BIKKR KENNO OAL LOMIA LKV BLYTZ ESLEY BTG PTERA KRIEG HAWKZ LIINE PIKEZ COFAY BREVE NETTZ KWEST VASHN BUGNE RW16R2.6 hrs2.4 hrs11,173 lbNiklas Graefe
2020-07-22DAL924KONT KLAS KONT MISEN KLAS0.9 hrs0.7 hrs5,376 lbAlex K.